sensor_id;sensor_type;location;lat;lon;timestamp;P1;durP1;ratioP1;P2;durP2;ratioP2
79693;SDS011;69165;52.714;13.200;2023-04-25T05:00:46;9.90;;;5.03;;
79693;SDS011;69165;52.714;13.200;2023-04-25T05:02:48;6.63;;;4.70;;
79693;SDS011;69165;52.714;13.200;2023-04-25T05:04:50;14.13;;;6.00;;
79693;SDS011;69165;52.714;13.200;2023-04-25T05:06:52;14.90;;;4.80;;
79693;SDS011;69165;52.714;13.200;2023-04-25T05:08:55;8.73;;;4.30;;
79693;SDS011;69165;52.714;13.200;2023-04-25T05:10:56;20.10;;;6.00;;
79693;SDS011;69165;52.714;13.200;2023-04-25T05:12:58;22.53;;;5.67;;
79693;SDS011;69165;52.714;13.200;2023-04-25T05:15:00;21.23;;;5.70;;
79693;SDS011;69165;52.714;13.200;2023-04-25T05:17:01;7.30;;;4.10;;
79693;SDS011;69165;52.714;13.200;2023-04-25T05:19:04;14.23;;;5.70;;
79693;SDS011;69165;52.714;13.200;2023-04-25T05:21:05;10.73;;;5.20;;
79693;SDS011;69165;52.714;13.200;2023-04-25T05:23:07;6.20;;;4.47;;
79693;SDS011;69165;52.714;13.200;2023-04-25T05:25:08;14.63;;;5.67;;
79693;SDS011;69165;52.714;13.200;2023-04-25T05:27:11;11.60;;;6.10;;
79693;SDS011;69165;52.714;13.200;2023-04-25T05:29:13;9.47;;;5.30;;
79693;SDS011;69165;52.714;13.200;2023-04-25T05:31:15;10.30;;;5.03;;
79693;SDS011;69165;52.714;13.200;2023-04-25T05:33:16;11.57;;;6.43;;
79693;SDS011;69165;52.714;13.200;2023-04-25T05:35:19;25.37;;;5.73;;
79693;SDS011;69165;52.714;13.200;2023-04-25T05:37:20;16.70;;;5.57;;
79693;SDS011;69165;52.714;13.200;2023-04-25T05:39:22;12.17;;;5.77;;
79693;SDS011;69165;52.714;13.200;2023-04-25T05:41:23;12.97;;;5.23;;
79693;SDS011;69165;52.714;13.200;2023-04-25T05:43:26;27.97;;;6.30;;
79693;SDS011;69165;52.714;13.200;2023-04-25T05:45:27;20.70;;;6.10;;
79693;SDS011;69165;52.714;13.200;2023-04-25T05:47:29;18.07;;;6.07;;
79693;SDS011;69165;52.714;13.200;2023-04-25T05:49:31;15.67;;;5.37;;
79693;SDS011;69165;52.714;13.200;2023-04-25T05:51:32;12.97;;;5.80;;
79693;SDS011;69165;52.714;13.200;2023-04-25T05:53:34;26.60;;;6.87;;
79693;SDS011;69165;52.714;13.200;2023-04-25T05:55:36;15.20;;;6.20;;
79693;SDS011;69165;52.714;13.200;2023-04-25T05:57:38;15.03;;;6.70;;
79693;SDS011;69165;52.714;13.200;2023-04-25T05:59:39;26.93;;;6.47;;
79693;SDS011;69165;52.714;13.200;2023-04-25T06:01:41;14.03;;;5.83;;
79693;SDS011;69165;52.714;13.200;2023-04-25T06:03:43;11.77;;;5.23;;
79693;SDS011;69165;52.714;13.200;2023-04-25T06:05:46;15.10;;;5.63;;
79693;SDS011;69165;52.714;13.200;2023-04-25T06:07:47;14.17;;;5.97;;
79693;SDS011;69165;52.714;13.200;2023-04-25T06:09:49;18.33;;;5.70;;
79693;SDS011;69165;52.714;13.200;2023-04-25T06:11:51;15.13;;;5.70;;
79693;SDS011;69165;52.714;13.200;2023-04-25T06:13:53;13.87;;;5.87;;
79693;SDS011;69165;52.714;13.200;2023-04-25T06:15:55;12.03;;;5.80;;
79693;SDS011;69165;52.714;13.200;2023-04-25T06:17:58;21.13;;;7.43;;
79693;SDS011;69165;52.714;13.200;2023-04-25T06:19:59;14.50;;;5.77;;
79693;SDS011;69165;52.714;13.200;2023-04-25T06:22:01;14.33;;;6.50;;
79693;SDS011;69165;52.714;13.200;2023-04-25T06:24:02;11.50;;;5.67;;
79693;SDS011;69165;52.714;13.200;2023-04-25T06:26:04;15.93;;;6.67;;
79693;SDS011;69165;52.714;13.200;2023-04-25T06:28:07;17.63;;;6.23;;
79693;SDS011;69165;52.714;13.200;2023-04-25T06:30:08;14.07;;;7.07;;
79693;SDS011;69165;52.714;13.200;2023-04-25T06:32:11;18.93;;;7.07;;
79693;SDS011;69165;52.714;13.200;2023-04-25T06:34:13;16.50;;;6.60;;
79693;SDS011;69165;52.714;13.200;2023-04-25T06:36:15;11.93;;;6.27;;
79693;SDS011;69165;52.714;13.200;2023-04-25T06:38:17;11.30;;;5.80;;
79693;SDS011;69165;52.714;13.200;2023-04-25T06:40:18;14.30;;;5.80;;
79693;SDS011;69165;52.714;13.200;2023-04-25T06:42:20;14.30;;;5.30;;
79693;SDS011;69165;52.714;13.200;2023-04-25T06:44:21;14.67;;;6.00;;
79693;SDS011;69165;52.714;13.200;2023-04-25T06:46:23;13.60;;;5.60;;
79693;SDS011;69165;52.714;13.200;2023-04-25T06:48:25;23.50;;;6.50;;
79693;SDS011;69165;52.714;13.200;2023-04-25T06:50:27;49.47;;;7.90;;
79693;SDS011;69165;52.714;13.200;2023-04-25T06:52:29;19.80;;;7.23;;
79693;SDS011;69165;52.714;13.200;2023-04-25T06:54:31;23.07;;;5.73;;
79693;SDS011;69165;52.714;13.200;2023-04-25T06:56:33;17.90;;;7.33;;
79693;SDS011;69165;52.714;13.200;2023-04-25T06:58:34;20.40;;;6.30;;
79693;SDS011;69165;52.714;13.200;2023-04-25T07:00:36;19.83;;;6.30;;
79693;SDS011;69165;52.714;13.200;2023-04-25T07:02:37;20.93;;;6.13;;
79693;SDS011;69165;52.714;13.200;2023-04-25T07:04:40;19.03;;;6.50;;
79693;SDS011;69165;52.714;13.200;2023-04-25T07:06:41;17.27;;;5.13;;
79693;SDS011;69165;52.714;13.200;2023-04-25T07:08:43;20.77;;;6.33;;
79693;SDS011;69165;52.714;13.200;2023-04-25T07:10:45;17.57;;;6.63;;
79693;SDS011;69165;52.714;13.200;2023-04-25T07:12:47;28.03;;;6.43;;
79693;SDS011;69165;52.714;13.200;2023-04-25T07:14:49;21.20;;;6.63;;
79693;SDS011;69165;52.714;13.200;2023-04-25T07:16:51;31.47;;;7.37;;
79693;SDS011;69165;52.714;13.200;2023-04-25T07:18:53;16.53;;;6.50;;
79693;SDS011;69165;52.714;13.200;2023-04-25T07:20:54;23.43;;;6.47;;
79693;SDS011;69165;52.714;13.200;2023-04-25T07:22:57;34.60;;;6.37;;
79693;SDS011;69165;52.714;13.200;2023-04-25T07:24:59;29.00;;;6.20;;
79693;SDS011;69165;52.714;13.200;2023-04-25T07:27:01;20.83;;;5.30;;
79693;SDS011;69165;52.714;13.200;2023-04-25T07:29:02;18.83;;;5.83;;
79693;SDS011;69165;52.714;13.200;2023-04-25T07:31:04;16.93;;;6.23;;
79693;SDS011;69165;52.714;13.200;2023-04-25T07:33:06;23.80;;;5.70;;
79693;SDS011;69165;52.714;13.200;2023-04-25T07:35:08;18.90;;;5.73;;
79693;SDS011;69165;52.714;13.200;2023-04-25T07:37:10;48.83;;;6.57;;
79693;SDS011;69165;52.714;13.200;2023-04-25T07:39:11;31.70;;;6.60;;
79693;SDS011;69165;52.714;13.200;2023-04-25T07:41:13;30.17;;;5.97;;
79693;SDS011;69165;52.714;13.200;2023-04-25T07:43:15;38.60;;;5.90;;
79693;SDS011;69165;52.714;13.200;2023-04-25T07:45:17;50.20;;;6.40;;
79693;SDS011;69165;52.714;13.200;2023-04-25T07:47:19;42.00;;;5.50;;
79693;SDS011;69165;52.714;13.200;2023-04-25T07:49:22;24.80;;;5.60;;
79693;SDS011;69165;52.714;13.200;2023-04-25T07:51:24;13.20;;;4.63;;
79693;SDS011;69165;52.714;13.200;2023-04-25T07:53:26;53.50;;;5.03;;
79693;SDS011;69165;52.714;13.200;2023-04-25T07:55:27;13.87;;;4.27;;
79693;SDS011;69165;52.714;13.200;2023-04-25T07:57:30;25.17;;;6.00;;
79693;SDS011;69165;52.714;13.200;2023-04-25T07:59:31;27.33;;;5.60;;
79693;SDS011;69165;52.714;13.200;2023-04-25T08:01:33;28.57;;;5.33;;
79693;SDS011;69165;52.714;13.200;2023-04-25T08:03:34;42.73;;;7.13;;
79693;SDS011;69165;52.714;13.200;2023-04-25T08:05:36;14.83;;;4.77;;
79693;SDS011;69165;52.714;13.200;2023-04-25T08:07:38;39.53;;;6.23;;
79693;SDS011;69165;52.714;13.200;2023-04-25T08:09:39;38.03;;;6.83;;
79693;SDS011;69165;52.714;13.200;2023-04-25T08:11:41;39.37;;;6.23;;
79693;SDS011;69165;52.714;13.200;2023-04-25T08:13:42;32.30;;;5.67;;
79693;SDS011;69165;52.714;13.200;2023-04-25T08:15:45;21.60;;;5.30;;
79693;SDS011;69165;52.714;13.200;2023-04-25T08:17:46;25.83;;;5.93;;
79693;SDS011;69165;52.714;13.200;2023-04-25T08:19:49;21.90;;;5.33;;
79693;SDS011;69165;52.714;13.200;2023-04-25T08:21:51;19.53;;;5.40;;
79693;SDS011;69165;52.714;13.200;2023-04-25T08:23:53;35.10;;;6.40;;
79693;SDS011;69165;52.714;13.200;2023-04-25T08:25:56;20.33;;;6.67;;
79693;SDS011;69165;52.714;13.200;2023-04-25T08:27:58;39.90;;;6.73;;
79693;SDS011;69165;52.714;13.200;2023-04-25T08:30:00;24.80;;;5.40;;
79693;SDS011;69165;52.714;13.200;2023-04-25T08:32:01;27.87;;;5.60;;
79693;SDS011;69165;52.714;13.200;2023-04-25T08:34:03;50.83;;;7.00;;
79693;SDS011;69165;52.714;13.200;2023-04-25T08:36:05;24.90;;;7.17;;
79693;SDS011;69165;52.714;13.200;2023-04-25T08:38:08;20.53;;;5.10;;
79693;SDS011;69165;52.714;13.200;2023-04-25T08:40:11;30.97;;;5.87;;
79693;SDS011;69165;52.714;13.200;2023-04-25T08:42:11;14.23;;;4.30;;
79693;SDS011;69165;52.714;13.200;2023-04-25T08:44:13;20.67;;;5.30;;
79693;SDS011;69165;52.714;13.200;2023-04-25T08:46:17;29.47;;;5.23;;
79693;SDS011;69165;52.714;13.200;2023-04-25T08:48:17;20.40;;;4.93;;
79693;SDS011;69165;52.714;13.200;2023-04-25T08:50:18;23.63;;;4.90;;
79693;SDS011;69165;52.714;13.200;2023-04-25T08:52:21;21.43;;;4.67;;
79693;SDS011;69165;52.714;13.200;2023-04-25T08:54:23;22.70;;;5.07;;
79693;SDS011;69165;52.714;13.200;2023-04-25T08:56:26;26.07;;;5.70;;
79693;SDS011;69165;52.714;13.200;2023-04-25T08:58:27;10.07;;;4.20;;
79693;SDS011;69165;52.714;13.200;2023-04-25T09:00:29;35.60;;;5.50;;
79693;SDS011;69165;52.714;13.200;2023-04-25T09:02:30;30.63;;;5.53;;
79693;SDS011;69165;52.714;13.200;2023-04-25T09:04:33;31.93;;;5.70;;
79693;SDS011;69165;52.714;13.200;2023-04-25T09:06:34;25.40;;;5.67;;
79693;SDS011;69165;52.714;13.200;2023-04-25T09:08:36;17.80;;;4.97;;
79693;SDS011;69165;52.714;13.200;2023-04-25T09:10:38;9.80;;;3.70;;
79693;SDS011;69165;52.714;13.200;2023-04-25T09:12:39;25.83;;;4.53;;
79693;SDS011;69165;52.714;13.200;2023-04-25T09:14:41;10.37;;;4.80;;
79693;SDS011;69165;52.714;13.200;2023-04-25T09:17:14;25.13;;;5.00;;
79693;SDS011;69165;52.714;13.200;2023-04-25T09:19:01;14.10;;;3.73;;
79693;SDS011;69165;52.714;13.200;2023-04-25T09:21:07;18.70;;;3.83;;
79693;SDS011;69165;52.714;13.200;2023-04-25T09:23:08;11.43;;;3.20;;
79693;SDS011;69165;52.714;13.200;2023-04-25T09:25:11;10.13;;;3.57;;
79693;SDS011;69165;52.714;13.200;2023-04-25T09:27:13;29.07;;;3.93;;
79693;SDS011;69165;52.714;13.200;2023-04-25T09:29:13;20.03;;;3.60;;
79693;SDS011;69165;52.714;13.200;2023-04-25T09:31:21;8.43;;;3.13;;
79693;SDS011;69165;52.714;13.200;2023-04-25T09:33:30;13.70;;;3.50;;
79693;SDS011;69165;52.714;13.200;2023-04-25T09:35:35;29.07;;;3.50;;
79693;SDS011;69165;52.714;13.200;2023-04-25T09:37:36;24.93;;;3.70;;
79693;SDS011;69165;52.714;13.200;2023-04-25T09:39:39;16.07;;;3.80;;
79693;SDS011;69165;52.714;13.200;2023-04-25T09:41:41;25.30;;;4.87;;
79693;SDS011;69165;52.714;13.200;2023-04-25T09:43:45;17.30;;;3.50;;
79693;SDS011;69165;52.714;13.200;2023-04-25T09:45:45;15.97;;;4.30;;
79693;SDS011;69165;52.714;13.200;2023-04-25T09:47:47;9.33;;;3.53;;
79693;SDS011;69165;52.714;13.200;2023-04-25T09:49:49;8.80;;;2.93;;
79693;SDS011;69165;52.714;13.200;2023-04-25T09:51:53;15.80;;;3.40;;
79693;SDS011;69165;52.714;13.200;2023-04-25T09:53:55;9.07;;;3.73;;
79693;SDS011;69165;52.714;13.200;2023-04-25T09:55:57;10.00;;;2.83;;
79693;SDS011;69165;52.714;13.200;2023-04-25T09:58:00;14.50;;;3.00;;
79693;SDS011;69165;52.714;13.200;2023-04-25T10:00:01;20.97;;;4.23;;
79693;SDS011;69165;52.714;13.200;2023-04-25T10:02:03;7.30;;;3.03;;
79693;SDS011;69165;52.714;13.200;2023-04-25T10:04:05;14.57;;;4.07;;
79693;SDS011;69165;52.714;13.200;2023-04-25T10:06:07;23.33;;;3.47;;
79693;SDS011;69165;52.714;13.200;2023-04-25T10:08:08;10.13;;;3.50;;
79693;SDS011;69165;52.714;13.200;2023-04-25T10:10:10;12.80;;;3.43;;
79693;SDS011;69165;52.714;13.200;2023-04-25T10:12:12;15.70;;;3.63;;
79693;SDS011;69165;52.714;13.200;2023-04-25T10:14:14;24.53;;;4.63;;
79693;SDS011;69165;52.714;13.200;2023-04-25T10:16:15;11.27;;;3.47;;
79693;SDS011;69165;52.714;13.200;2023-04-25T10:18:17;10.70;;;3.53;;
79693;SDS011;69165;52.714;13.200;2023-04-25T10:20:19;20.87;;;4.10;;
79693;SDS011;69165;52.714;13.200;2023-04-25T10:22:23;22.87;;;3.50;;
79693;SDS011;69165;52.714;13.200;2023-04-25T10:24:22;12.57;;;3.40;;
79693;SDS011;69165;52.714;13.200;2023-04-25T10:26:24;6.87;;;2.80;;
79693;SDS011;69165;52.714;13.200;2023-04-25T10:28:26;20.40;;;3.60;;
79693;SDS011;69165;52.714;13.200;2023-04-25T10:30:27;25.10;;;3.30;;
79693;SDS011;69165;52.714;13.200;2023-04-25T10:32:30;15.10;;;2.90;;
79693;SDS011;69165;52.714;13.200;2023-04-25T10:36:39;17.90;;;3.27;;
79693;SDS011;69165;52.714;13.200;2023-04-25T10:38:42;5.70;;;2.33;;
79693;SDS011;69165;52.714;13.200;2023-04-25T10:41:02;8.90;;;3.27;;
79693;SDS011;69165;52.714;13.200;2023-04-25T10:42:45;12.00;;;3.67;;
79693;SDS011;69165;52.714;13.200;2023-04-25T10:45:00;11.10;;;3.80;;
79693;SDS011;69165;52.714;13.200;2023-04-25T10:46:48;10.60;;;2.97;;
79693;SDS011;69165;52.714;13.200;2023-04-25T10:48:51;14.10;;;2.97;;
79693;SDS011;69165;52.714;13.200;2023-04-25T10:53:18;9.93;;;2.77;;
79693;SDS011;69165;52.714;13.200;2023-04-25T10:55:20;6.03;;;2.80;;
79693;SDS011;69165;52.714;13.200;2023-04-25T10:57:28;7.80;;;2.47;;
79693;SDS011;69165;52.714;13.200;2023-04-25T10:59:31;9.33;;;2.70;;
79693;SDS011;69165;52.714;13.200;2023-04-25T11:01:35;7.17;;;2.33;;
79693;SDS011;69165;52.714;13.200;2023-04-25T11:03:41;6.10;;;2.57;;
79693;SDS011;69165;52.714;13.200;2023-04-25T11:05:43;34.30;;;2.40;;
79693;SDS011;69165;52.714;13.200;2023-04-25T11:07:49;12.63;;;2.93;;
79693;SDS011;69165;52.714;13.200;2023-04-25T11:09:49;11.50;;;2.70;;
79693;SDS011;69165;52.714;13.200;2023-04-25T11:11:54;11.63;;;2.70;;
79693;SDS011;69165;52.714;13.200;2023-04-25T11:13:56;11.63;;;3.17;;
79693;SDS011;69165;52.714;13.200;2023-04-25T11:15:57;29.57;;;4.63;;
79693;SDS011;69165;52.714;13.200;2023-04-25T11:17:59;20.43;;;3.87;;
79693;SDS011;69165;52.714;13.200;2023-04-25T11:20:01;16.27;;;3.23;;
79693;SDS011;69165;52.714;13.200;2023-04-25T11:22:02;15.00;;;3.07;;
79693;SDS011;69165;52.714;13.200;2023-04-25T11:24:04;10.07;;;2.83;;
79693;SDS011;69165;52.714;13.200;2023-04-25T11:26:06;7.37;;;2.60;;
79693;SDS011;69165;52.714;13.200;2023-04-25T11:28:07;16.00;;;3.50;;
79693;SDS011;69165;52.714;13.200;2023-04-25T11:30:16;23.20;;;3.57;;
79693;SDS011;69165;52.714;13.200;2023-04-25T11:32:18;9.90;;;3.30;;
79693;SDS011;69165;52.714;13.200;2023-04-25T11:34:21;11.90;;;2.90;;
79693;SDS011;69165;52.714;13.200;2023-04-25T11:36:23;30.60;;;4.33;;
79693;SDS011;69165;52.714;13.200;2023-04-25T11:38:25;13.80;;;2.87;;
79693;SDS011;69165;52.714;13.200;2023-04-25T11:40:26;8.30;;;3.40;;
79693;SDS011;69165;52.714;13.200;2023-04-25T11:42:28;11.83;;;2.77;;
79693;SDS011;69165;52.714;13.200;2023-04-25T11:44:29;8.60;;;3.27;;
79693;SDS011;69165;52.714;13.200;2023-04-25T11:46:33;16.00;;;3.00;;
79693;SDS011;69165;52.714;13.200;2023-04-25T11:48:39;12.13;;;3.47;;
79693;SDS011;69165;52.714;13.200;2023-04-25T11:50:41;15.47;;;3.57;;
79693;SDS011;69165;52.714;13.200;2023-04-25T11:52:45;20.73;;;3.30;;
79693;SDS011;69165;52.714;13.200;2023-04-25T11:54:46;11.97;;;2.90;;
79693;SDS011;69165;52.714;13.200;2023-04-25T11:56:47;14.73;;;3.30;;
79693;SDS011;69165;52.714;13.200;2023-04-25T12:00:58;10.13;;;3.20;;
79693;SDS011;69165;52.714;13.200;2023-04-25T12:03:00;13.63;;;3.50;;
79693;SDS011;69165;52.714;13.200;2023-04-25T12:05:06;10.60;;;3.33;;
79693;SDS011;69165;52.714;13.200;2023-04-25T12:07:09;14.60;;;2.80;;
79693;SDS011;69165;52.714;13.200;2023-04-25T12:09:10;10.07;;;3.20;;
79693;SDS011;69165;52.714;13.200;2023-04-25T12:13:23;14.00;;;2.93;;
79693;SDS011;69165;52.714;13.200;2023-04-25T12:15:24;18.70;;;3.33;;
79693;SDS011;69165;52.714;13.200;2023-04-25T12:17:26;14.40;;;3.60;;
79693;SDS011;69165;52.714;13.200;2023-04-25T12:19:32;8.13;;;2.50;;
79693;SDS011;69165;52.714;13.200;2023-04-25T12:21:35;31.93;;;3.60;;
79693;SDS011;69165;52.714;13.200;2023-04-25T12:23:38;13.20;;;3.30;;
79693;SDS011;69165;52.714;13.200;2023-04-25T12:25:42;8.90;;;2.60;;
79693;SDS011;69165;52.714;13.200;2023-04-25T12:27:44;22.53;;;3.13;;
79693;SDS011;69165;52.714;13.200;2023-04-25T12:29:50;27.17;;;3.17;;
79693;SDS011;69165;52.714;13.200;2023-04-25T12:31:53;10.50;;;3.00;;
79693;SDS011;69165;52.714;13.200;2023-04-25T12:33:54;15.00;;;2.97;;
79693;SDS011;69165;52.714;13.200;2023-04-25T12:35:56;5.73;;;2.90;;
79693;SDS011;69165;52.714;13.200;2023-04-25T12:37:57;17.03;;;3.27;;
79693;SDS011;69165;52.714;13.200;2023-04-25T12:39:59;15.73;;;3.03;;
79693;SDS011;69165;52.714;13.200;2023-04-25T12:42:01;17.17;;;2.93;;
79693;SDS011;69165;52.714;13.200;2023-04-25T12:44:03;8.80;;;2.50;;
79693;SDS011;69165;52.714;13.200;2023-04-25T12:46:05;14.87;;;3.60;;
79693;SDS011;69165;52.714;13.200;2023-04-25T12:48:08;9.83;;;3.20;;
79693;SDS011;69165;52.714;13.200;2023-04-25T12:50:10;11.27;;;2.53;;
79693;SDS011;69165;52.714;13.200;2023-04-25T12:52:12;7.17;;;3.47;;
79693;SDS011;69165;52.714;13.200;2023-04-25T12:54:13;17.17;;;3.90;;
79693;SDS011;69165;52.714;13.200;2023-04-25T12:56:16;26.50;;;3.37;;
79693;SDS011;69165;52.714;13.200;2023-04-25T12:58:19;14.73;;;3.40;;
79693;SDS011;69165;52.714;13.200;2023-04-25T13:00:20;13.63;;;3.50;;
79693;SDS011;69165;52.714;13.200;2023-04-25T13:02:21;13.30;;;2.83;;
79693;SDS011;69165;52.714;13.200;2023-04-25T13:04:23;9.73;;;2.80;;
79693;SDS011;69165;52.714;13.200;2023-04-25T13:06:25;12.40;;;3.00;;
79693;SDS011;69165;52.714;13.200;2023-04-25T13:08:28;7.83;;;2.90;;
79693;SDS011;69165;52.714;13.200;2023-04-25T13:10:30;13.93;;;2.87;;
79693;SDS011;69165;52.714;13.200;2023-04-25T13:12:31;14.47;;;3.47;;
79693;SDS011;69165;52.714;13.200;2023-04-25T13:14:33;17.47;;;2.57;;
79693;SDS011;69165;52.714;13.200;2023-04-25T13:16:34;5.13;;;3.00;;
79693;SDS011;69165;52.714;13.200;2023-04-25T13:18:36;9.23;;;3.23;;
79693;SDS011;69165;52.714;13.200;2023-04-25T13:20:38;10.23;;;3.37;;
79693;SDS011;69165;52.714;13.200;2023-04-25T13:22:41;17.37;;;3.70;;
79693;SDS011;69165;52.714;13.200;2023-04-25T13:24:42;7.03;;;2.60;;
79693;SDS011;69165;52.714;13.200;2023-04-25T13:26:45;7.60;;;3.07;;
79693;SDS011;69165;52.714;13.200;2023-04-25T13:28:47;20.33;;;2.43;;
79693;SDS011;69165;52.714;13.200;2023-04-25T13:30:49;16.17;;;3.03;;
79693;SDS011;69165;52.714;13.200;2023-04-25T13:32:50;7.77;;;2.73;;
79693;SDS011;69165;52.714;13.200;2023-04-25T13:34:52;8.10;;;2.70;;
79693;SDS011;69165;52.714;13.200;2023-04-25T13:36:53;12.77;;;3.00;;
79693;SDS011;69165;52.714;13.200;2023-04-25T13:38:55;15.90;;;2.70;;
79693;SDS011;69165;52.714;13.200;2023-04-25T13:40:57;10.27;;;2.60;;
79693;SDS011;69165;52.714;13.200;2023-04-25T13:42:59;14.27;;;2.93;;
79693;SDS011;69165;52.714;13.200;2023-04-25T13:45:01;8.13;;;3.20;;
79693;SDS011;69165;52.714;13.200;2023-04-25T13:47:02;8.63;;;2.47;;
79693;SDS011;69165;52.714;13.200;2023-04-25T13:49:04;15.03;;;3.27;;
79693;SDS011;69165;52.714;13.200;2023-04-25T13:51:05;5.80;;;2.23;;
79693;SDS011;69165;52.714;13.200;2023-04-25T13:53:07;2.93;;;2.13;;
79693;SDS011;69165;52.714;13.200;2023-04-25T13:55:09;12.17;;;2.43;;
79693;SDS011;69165;52.714;13.200;2023-04-25T13:57:11;17.57;;;2.90;;
79693;SDS011;69165;52.714;13.200;2023-04-25T13:59:13;7.67;;;3.00;;
79693;SDS011;69165;52.714;13.200;2023-04-25T14:01:14;7.90;;;2.20;;
79693;SDS011;69165;52.714;13.200;2023-04-25T14:03:16;20.33;;;3.30;;
79693;SDS011;69165;52.714;13.200;2023-04-25T14:05:18;11.97;;;4.23;;
79693;SDS011;69165;52.714;13.200;2023-04-25T14:07:19;9.53;;;3.20;;
79693;SDS011;69165;52.714;13.200;2023-04-25T14:09:22;9.40;;;2.53;;
79693;SDS011;69165;52.714;13.200;2023-04-25T14:11:23;5.07;;;2.60;;
79693;SDS011;69165;52.714;13.200;2023-04-25T14:13:25;9.87;;;2.07;;
79693;SDS011;69165;52.714;13.200;2023-04-25T14:15:26;12.27;;;2.77;;
79693;SDS011;69165;52.714;13.200;2023-04-25T14:17:28;15.03;;;3.10;;
79693;SDS011;69165;52.714;13.200;2023-04-25T14:19:30;7.83;;;3.10;;
79693;SDS011;69165;52.714;13.200;2023-04-25T14:21:31;5.90;;;2.77;;
79693;SDS011;69165;52.714;13.200;2023-04-25T14:23:33;7.23;;;2.40;;
79693;SDS011;69165;52.714;13.200;2023-04-25T14:25:34;9.77;;;3.90;;
79693;SDS011;69165;52.714;13.200;2023-04-25T14:27:37;13.90;;;3.03;;
79693;SDS011;69165;52.714;13.200;2023-04-25T14:29:38;3.93;;;2.60;;
79693;SDS011;69165;52.714;13.200;2023-04-25T14:31:40;11.70;;;4.20;;
79693;SDS011;69165;52.714;13.200;2023-04-25T14:33:42;12.20;;;3.57;;
79693;SDS011;69165;52.714;13.200;2023-04-25T14:35:43;10.17;;;2.40;;
79693;SDS011;69165;52.714;13.200;2023-04-25T14:37:45;5.20;;;2.30;;
79693;SDS011;69165;52.714;13.200;2023-04-25T14:39:47;15.60;;;2.60;;
79693;SDS011;69165;52.714;13.200;2023-04-25T14:41:48;10.97;;;2.37;;
79693;SDS011;69165;52.714;13.200;2023-04-25T14:43:50;4.77;;;2.60;;
79693;SDS011;69165;52.714;13.200;2023-04-25T14:45:53;4.03;;;2.70;;
79693;SDS011;69165;52.714;13.200;2023-04-25T14:47:54;13.90;;;2.77;;
79693;SDS011;69165;52.714;13.200;2023-04-25T14:49:56;7.60;;;1.90;;
79693;SDS011;69165;52.714;13.200;2023-04-25T14:51:58;3.43;;;2.10;;
79693;SDS011;69165;52.714;13.200;2023-04-25T14:54:00;9.50;;;1.80;;
79693;SDS011;69165;52.714;13.200;2023-04-25T14:56:02;10.20;;;2.23;;
79693;SDS011;69165;52.714;13.200;2023-04-25T14:58:05;3.00;;;1.50;;
79693;SDS011;69165;52.714;13.200;2023-04-25T15:00:07;4.63;;;1.50;;
79693;SDS011;69165;52.714;13.200;2023-04-25T15:02:10;3.13;;;1.67;;
79693;SDS011;69165;52.714;13.200;2023-04-25T15:04:11;4.07;;;1.37;;
79693;SDS011;69165;52.714;13.200;2023-04-25T15:06:13;7.33;;;1.33;;
79693;SDS011;69165;52.714;13.200;2023-04-25T15:08:15;13.80;;;2.00;;
79693;SDS011;69165;52.714;13.200;2023-04-25T15:10:17;9.67;;;1.53;;
79693;SDS011;69165;52.714;13.200;2023-04-25T15:12:18;2.80;;;1.57;;
79693;SDS011;69165;52.714;13.200;2023-04-25T15:14:20;6.70;;;2.13;;
79693;SDS011;69165;52.714;13.200;2023-04-25T15:16:24;4.73;;;1.77;;
79693;SDS011;69165;52.714;13.200;2023-04-25T15:18:25;3.90;;;1.67;;
79693;SDS011;69165;52.714;13.200;2023-04-25T15:20:27;4.73;;;1.50;;
79693;SDS011;69165;52.714;13.200;2023-04-25T15:22:28;9.97;;;1.60;;
79693;SDS011;69165;52.714;13.200;2023-04-25T15:24:30;7.53;;;1.70;;
79693;SDS011;69165;52.714;13.200;2023-04-25T15:26:32;5.63;;;1.60;;
79693;SDS011;69165;52.714;13.200;2023-04-25T15:28:33;14.33;;;2.20;;
79693;SDS011;69165;52.714;13.200;2023-04-25T15:30:35;6.83;;;1.83;;
79693;SDS011;69165;52.714;13.200;2023-04-25T15:32:37;3.13;;;2.03;;
79693;SDS011;69165;52.714;13.200;2023-04-25T15:34:39;4.43;;;1.43;;
79693;SDS011;69165;52.714;13.200;2023-04-25T15:36:40;7.60;;;1.60;;
79693;SDS011;69165;52.714;13.200;2023-04-25T15:38:42;7.43;;;2.30;;
79693;SDS011;69165;52.714;13.200;2023-04-25T15:40:44;13.13;;;2.03;;
79693;SDS011;69165;52.714;13.200;2023-04-25T15:42:46;9.40;;;1.97;;
79693;SDS011;69165;52.714;13.200;2023-04-25T15:44:47;4.23;;;2.40;;
79693;SDS011;69165;52.714;13.200;2023-04-25T15:46:49;5.20;;;1.87;;
79693;SDS011;69165;52.714;13.200;2023-04-25T15:48:51;3.90;;;1.67;;
79693;SDS011;69165;52.714;13.200;2023-04-25T15:50:52;15.50;;;2.07;;
79693;SDS011;69165;52.714;13.200;2023-04-25T15:52:54;3.60;;;1.70;;
79693;SDS011;69165;52.714;13.200;2023-04-25T15:54:55;6.83;;;1.87;;
79693;SDS011;69165;52.714;13.200;2023-04-25T15:56:57;7.33;;;1.93;;
79693;SDS011;69165;52.714;13.200;2023-04-25T15:59:00;13.67;;;2.03;;
79693;SDS011;69165;52.714;13.200;2023-04-25T16:01:02;3.43;;;1.50;;
79693;SDS011;69165;52.714;13.200;2023-04-25T16:03:04;14.77;;;3.30;;
79693;SDS011;69165;52.714;13.200;2023-04-25T16:05:07;9.70;;;1.60;;
79693;SDS011;69165;52.714;13.200;2023-04-25T16:07:09;6.27;;;1.70;;
79693;SDS011;69165;52.714;13.200;2023-04-25T16:09:11;6.97;;;2.37;;
79693;SDS011;69165;52.714;13.200;2023-04-25T16:11:12;1.30;;;1.30;;
79693;SDS011;69165;52.714;13.200;2023-04-25T16:13:14;3.63;;;1.80;;
79693;SDS011;69165;52.714;13.200;2023-04-25T16:15:15;8.90;;;1.70;;
79693;SDS011;69165;52.714;13.200;2023-04-25T16:17:17;4.60;;;1.80;;
79693;SDS011;69165;52.714;13.200;2023-04-25T16:19:19;8.10;;;2.60;;
79693;SDS011;69165;52.714;13.200;2023-04-25T16:21:21;7.87;;;1.77;;
79693;SDS011;69165;52.714;13.200;2023-04-25T16:23:23;10.23;;;2.13;;
79693;SDS011;69165;52.714;13.200;2023-04-25T16:25:24;7.77;;;1.60;;
79693;SDS011;69165;52.714;13.200;2023-04-25T16:27:27;4.53;;;1.50;;
79693;SDS011;69165;52.714;13.200;2023-04-25T16:29:28;6.20;;;1.87;;
79693;SDS011;69165;52.714;13.200;2023-04-25T16:31:30;1.70;;;1.60;;
79693;SDS011;69165;52.714;13.200;2023-04-25T16:33:31;5.37;;;1.70;;
79693;SDS011;69165;52.714;13.200;2023-04-25T16:35:33;10.23;;;2.90;;
79693;SDS011;69165;52.714;13.200;2023-04-25T16:37:35;10.10;;;1.73;;
79693;SDS011;69165;52.714;13.200;2023-04-25T16:39:36;4.20;;;1.70;;
79693;SDS011;69165;52.714;13.200;2023-04-25T16:41:38;2.30;;;1.80;;
79693;SDS011;69165;52.714;13.200;2023-04-25T16:43:39;5.90;;;2.43;;
79693;SDS011;69165;52.714;13.200;2023-04-25T16:45:42;5.40;;;1.83;;
79693;SDS011;69165;52.714;13.200;2023-04-25T16:47:44;16.43;;;2.23;;
79693;SDS011;69165;52.714;13.200;2023-04-25T16:49:45;14.97;;;2.50;;
79693;SDS011;69165;52.714;13.200;2023-04-25T16:51:47;15.60;;;2.00;;
79693;SDS011;69165;52.714;13.200;2023-04-25T16:53:50;3.27;;;1.63;;
79693;SDS011;69165;52.714;13.200;2023-04-25T16:55:52;3.23;;;1.90;;
79693;SDS011;69165;52.714;13.200;2023-04-25T16:57:55;5.30;;;1.70;;
79693;SDS011;69165;52.714;13.200;2023-04-25T16:59:57;6.37;;;2.73;;
79693;SDS011;69165;52.714;13.200;2023-04-25T17:01:59;4.97;;;2.23;;
79693;SDS011;69165;52.714;13.200;2023-04-25T17:04:00;3.73;;;1.77;;
79693;SDS011;69165;52.714;13.200;2023-04-25T17:06:02;7.70;;;1.50;;